Time;durP1;ratioP1;P1;durP2;ratioP2;P2;SDS_P1;SDS_P2;PMS_P1;PMS_P2;Temp;Humidity;BMP_temperature;BMP_pressure;BME280_temperature;BME280_humidity;BME280_pressure;Samples;Min_cycle;Max_cycle;Signal;HPM_P1;HPM_P2
2022/06/08 09:25:35;;;;;;;5.07;1.10;;;19.30;96.70;;;;;;6156875;22;1343713;-53
2022/06/08 09:28:02;;;;;;;3.55;1.05;;;19.30;96.50;;;;;;6162780;23;20033;-52
2022/06/08 09:30:29;;;;;;;5.38;1.35;;;19.30;96.70;;;;;;6163771;23;20024;-49
2022/06/08 09:33:01;;;;;;;5.25;1.20;;;19.40;97.40;;;;;;6161528;23;20048;-52
2022/06/08 09:35:28;;;;;;;5.15;1.58;;;19.60;96.10;;;;;;6134241;23;20018;-55
2022/06/08 09:37:55;;;;;;;6.22;1.60;;;19.60;96.30;;;;;;6133971;23;20473;-48
2022/06/08 09:40:37;;;;;;;3.50;1.10;;;19.60;95.90;;;;;;6133834;23;20069;-54
2022/06/08 09:43:04;;;;;;;5.97;1.20;;;19.60;95.70;;;;;;6134241;23;20017;-53
2022/06/08 09:45:31;;;;;;;7.07;1.58;;;19.60;96.70;;;;;;6133646;23;20443;-50
2022/06/08 21:27:42;;;;;;;;;;;16.30;87.50;;;;;;5091378;27;20374;-52
2022/06/08 21:30:09;;;;;;;10.95;2.30;;;16.10;88.30;;;;;;5089805;28;19935;-55
2022/06/08 21:32:35;;;;;;;7.75;2.05;;;16.10;88.40;;;;;;5089233;28;20529;-52
2022/06/08 21:35:02;;;;;;;12.52;2.38;;;16.10;88.70;;;;;;5089264;28;20062;-51
2022/06/08 21:37:29;;;;;;;11.35;2.95;;;16.20;89.00;;;;;;5088851;28;20433;-50
2022/06/08 21:39:56;;;;;;;12.80;2.55;;;16.10;89.50;;;;;;5089945;28;20040;-56
2022/06/08 21:42:22;;;;;;;12.18;2.50;;;16.20;90.00;;;;;;5090106;28;20079;-52
2022/06/08 21:44:50;;;;;;;14.02;2.53;;;16.20;90.10;;;;;;5088706;28;20052;-49
2022/06/08 21:47:18;;;;;;;11.15;2.15;;;16.20;90.20;;;;;;5089835;28;20036;-53
2022/06/08 21:49:46;;;;;;;9.38;2.22;;;16.20;90.20;;;;;;5089960;28;20044;-53
2022/06/08 21:52:13;;;;;;;12.48;2.75;;;16.10;90.30;;;;;;5090061;28;20040;-54
2022/06/08 21:54:40;;;;;;;15.80;2.78;;;16.20;90.50;;;;;;5090873;28;20041;-53
2022/06/08 21:57:07;;;;;;;14.57;3.33;;;16.10;90.70;;;;;;5090839;28;20048;-55
2022/06/08 21:59:33;;;;;;;12.23;2.90;;;16.10;91.00;;;;;;5090845;28;20044;-52
2022/06/08 22:02:00;;;;;;;16.25;3.60;;;16.00;91.30;;;;;;5091257;28;20441;-53
2022/06/08 22:04:28;;;;;;;10.75;2.25;;;16.00;91.50;;;;;;5090048;28;20086;-51
2022/06/08 22:06:55;;;;;;;18.27;2.78;;;16.10;91.60;;;;;;5089478;28;20036;-51
2022/06/08 22:09:23;;;;;;;13.05;2.45;;;16.00;91.80;;;;;;5088688;28;20035;-48
2022/06/08 22:11:50;;;;;;;15.13;2.72;;;16.00;91.90;;;;;;5089519;28;20037;-53
2022/06/08 22:14:16;;;;;;;19.38;2.95;;;15.90;92.10;;;;;;5089184;28;20044;-52
2022/06/08 22:16:43;;;;;;;13.63;3.85;;;15.90;92.20;;;;;;5089458;28;20049;-53
2022/06/08 22:19:10;;;;;;;10.98;2.13;;;15.90;92.30;;;;;;5088110;28;20060;-48
2022/06/08 22:21:36;;;;;;;13.27;2.80;;;16.00;92.50;;;;;;5088916;28;20048;-50
2022/06/08 22:24:03;;;;;;;13.25;2.47;;;16.00;92.40;;;;;;5087917;28;20036;-51
2022/06/08 22:26:30;;;;;;;14.73;2.55;;;15.90;92.40;;;;;;5087592;28;20471;-51
2022/06/08 22:28:57;;;;;;;13.70;3.13;;;15.90;92.40;;;;;;5088132;28;20116;-50
2022/06/08 22:31:24;;;;;;;15.15;2.75;;;15.90;92.60;;;;;;5089076;28;20070;-50
2022/06/08 22:33:51;;;;;;;13.80;2.47;;;15.90;92.80;;;;;;5088717;28;20119;-53
2022/06/08 22:36:17;;;;;;;15.85;2.60;;;15.90;93.00;;;;;;5088160;28;20475;-51
2022/06/08 22:38:44;;;;;;;17.50;2.85;;;15.90;93.20;;;;;;5077152;28;20063;-48
2022/06/08 22:41:11;;;;;;;16.38;3.03;;;15.80;93.40;;;;;;5075653;28;20041;-49
2022/06/08 22:43:38;;;;;;;15.85;3.08;;;15.80;93.50;;;;;;5074219;28;20044;-53
2022/06/08 22:46:05;;;;;;;12.48;2.70;;;15.80;93.60;;;;;;5075017;28;20086;-54
2022/06/08 22:48:32;;;;;;;12.00;2.78;;;15.80;93.80;;;;;;5075189;28;20052;-49
2022/06/08 22:50:59;;;;;;;17.45;3.97;;;15.80;94.00;;;;;;5074355;28;20525;-54
